aviador You're here:

KCLL Decoded Metar

COLLEGE STATION in TX, USA
Report Time2018-01-17 05:53:00
UTC Time2018-01-17 06:45:39
Flight Rules vfr VFR
Wind350° at 06 kt
W.Decomp.*RWY 34: 6.0 kt HW 0.4 kt RCW
RWY 04: 3.4 kt HW 5 kt LCW
RWY 28: 2.6 kt HW 5.4 kt RCW
W.Rank350° ranks 9
Current wind is below 350° avg. (9.4)
Visibility9999 m
Phenomena:N/A
Clouds:N/A
Expected CloudBase > 2,000 ft AGL from Temp-Dew spread
CeilingNone
Temp-7°C (ISA -21)
Dew Point-12°C (68% RH)
AAT-12.3°C
QNH1041 hPa
Density Alt-3,255 ft
Elevation315 ft
Report Wrong Elevation
Raw Report
METAR KCLL 170553Z AUTO 35006KT 10SM CLR M07/M12 A3074 RMK AO2 SLP411
T10671117 11033 21067 400391067 50001=

Extra information for KCLL:More info

Metar Taf Metar & Taf Last 4 Metars F.Rules Stats Wind Profile Meteogram Temp Stats Airport Information Weather charts Add Link Nearby VenuesMetar ALERT Operation Metar Decoded Social comments

AIRNAV info for KCLL